createdAt,value
2022-09-02T00:01:38.315Z,15.00
2022-09-02T00:04:16.009Z,14.80
2022-09-02T00:06:44.196Z,14.70
2022-09-02T00:09:15.502Z,14.70
2022-09-02T00:11:44.622Z,14.80
2022-09-02T00:14:15.653Z,14.80
2022-09-02T00:16:51.457Z,14.90
2022-09-02T00:19:24.156Z,15.00
2022-09-02T00:21:52.152Z,15.00
2022-09-02T00:24:19.019Z,15.00
2022-09-02T00:26:46.187Z,14.60
2022-09-02T00:29:14.599Z,14.50
2022-09-02T00:31:42.851Z,14.50
2022-09-02T00:34:10.717Z,14.60
2022-09-02T00:36:37.565Z,14.50
2022-09-02T00:39:07.557Z,14.40
2022-09-02T00:41:35.354Z,14.40
2022-09-02T00:44:06.493Z,14.50
2022-09-02T00:46:34.126Z,14.40
2022-09-02T00:49:11.938Z,14.50
2022-09-02T00:51:54.573Z,14.60
2022-09-02T00:54:24.062Z,14.60
2022-09-02T00:56:55.589Z,14.60
2022-09-02T00:59:41.352Z,14.60
2022-09-02T01:02:09.658Z,14.70
2022-09-02T01:04:37.141Z,14.80
2022-09-02T01:07:04.403Z,14.80
2022-09-02T01:09:33.376Z,14.70
2022-09-02T01:12:02.952Z,14.80
2022-09-02T01:14:30.622Z,14.60
2022-09-02T01:17:00.375Z,14.60
2022-09-02T01:19:34.940Z,14.80
2022-09-02T01:22:02.489Z,14.70
2022-09-02T01:24:32.862Z,14.70
2022-09-02T01:27:00.297Z,14.40
2022-09-02T01:29:28.378Z,14.40
2022-09-02T01:31:55.723Z,14.40
2022-09-02T01:34:23.325Z,14.50
2022-09-02T01:36:50.441Z,14.50
2022-09-02T01:39:17.656Z,14.50
2022-09-02T01:41:45.082Z,14.40
2022-09-02T01:44:12.203Z,14.40
2022-09-02T01:46:39.955Z,14.40
2022-09-02T01:49:07.381Z,14.10
2022-09-02T01:51:34.624Z,14.00
2022-09-02T01:54:02.048Z,13.90
2022-09-02T01:56:28.899Z,13.70
2022-09-02T01:58:55.770Z,13.70
2022-09-02T02:01:22.533Z,13.60
2022-09-02T02:03:51.664Z,13.60
2022-09-02T02:06:21.541Z,13.70
2022-09-02T02:08:48.329Z,13.70
2022-09-02T02:11:24.650Z,14.00
2022-09-02T02:13:56.750Z,14.00
2022-09-02T02:16:24.070Z,13.90
2022-09-02T02:18:51.070Z,13.60
2022-09-02T02:21:17.803Z,13.70
2022-09-02T02:23:47.006Z,13.70
2022-09-02T02:26:13.722Z,13.70
2022-09-02T02:28:40.485Z,13.30
2022-09-02T02:31:07.549Z,13.30
2022-09-02T02:33:36.044Z,13.20
2022-09-02T02:36:05.464Z,13.20
2022-09-02T02:38:33.324Z,13.40
2022-09-02T02:41:01.905Z,13.60
2022-09-02T02:43:29.053Z,13.70
2022-09-02T02:45:55.794Z,13.80
2022-09-02T02:48:23.044Z,13.80
2022-09-02T02:50:50.146Z,13.70
2022-09-02T02:53:17.491Z,13.60
2022-09-02T02:55:45.058Z,13.50
2022-09-02T02:58:17.238Z,13.50
2022-09-02T03:00:46.162Z,13.40
2022-09-02T03:03:14.875Z,13.50
2022-09-02T03:05:41.564Z,13.50
2022-09-02T03:08:11.029Z,13.40
2022-09-02T03:10:41.016Z,13.50
2022-09-02T03:13:09.962Z,13.50
2022-09-02T03:15:39.361Z,13.60
2022-09-02T03:18:06.598Z,13.60
2022-09-02T03:20:33.934Z,13.60
2022-09-02T03:23:04.754Z,13.60
2022-09-02T03:25:35.954Z,13.60
2022-09-02T03:28:08.743Z,13.50
2022-09-02T03:30:36.581Z,13.60
2022-09-02T03:33:05.857Z,13.60
2022-09-02T03:35:40.145Z,13.60
2022-09-02T03:38:07.730Z,13.80
2022-09-02T03:40:35.440Z,13.70
2022-09-02T03:43:02.686Z,13.70
2022-09-02T03:45:31.113Z,13.80
2022-09-02T03:48:02.362Z,13.80
2022-09-02T03:50:36.373Z,13.90
2022-09-02T03:53:04.278Z,13.90
2022-09-02T03:55:31.750Z,13.80
2022-09-02T03:57:58.504Z,13.70
2022-09-02T04:00:29.812Z,13.50
2022-09-02T04:02:58.500Z,13.50
2022-09-02T04:05:25.251Z,13.50
2022-09-02T04:07:55.172Z,13.40
2022-09-02T04:10:23.944Z,13.50
2022-09-02T04:12:51.739Z,13.40
2022-09-02T04:15:19.816Z,13.40
2022-09-02T04:17:48.488Z,13.30
2022-09-02T04:20:17.997Z,13.40
2022-09-02T04:22:45.010Z,13.40
2022-09-02T04:25:12.666Z,13.30
2022-09-02T04:27:39.441Z,13.40
2022-09-02T04:30:08.920Z,13.50
2022-09-02T04:32:40.929Z,13.50
2022-09-02T04:35:09.266Z,13.40
2022-09-02T04:37:37.031Z,13.30
2022-09-02T04:40:04.835Z,13.30
2022-09-02T04:42:31.865Z,13.30
2022-09-02T04:44:59.307Z,13.30
2022-09-02T04:47:27.757Z,13.10
2022-09-02T04:49:55.524Z,13.20
2022-09-02T04:52:22.914Z,13.10
2022-09-02T04:54:50.530Z,13.10
2022-09-02T04:57:17.711Z,13.20
2022-09-02T04:59:44.977Z,13.40
2022-09-02T05:02:12.141Z,13.30
2022-09-02T05:04:39.959Z,13.20
2022-09-02T05:07:13.329Z,13.10
2022-09-02T05:09:44.653Z,13.00
2022-09-02T05:12:11.573Z,12.90
2022-09-02T05:14:44.045Z,13.00
2022-09-02T05:17:11.160Z,12.90
2022-09-02T05:19:41.845Z,12.90
2022-09-02T05:22:08.942Z,12.80
2022-09-02T05:24:38.932Z,12.90
2022-09-02T05:27:09.762Z,13.10
2022-09-02T05:29:36.905Z,13.20
2022-09-02T05:32:04.308Z,13.10
2022-09-02T05:34:33.361Z,13.30
2022-09-02T05:37:03.300Z,13.20
2022-09-02T05:39:31.769Z,13.30
2022-09-02T05:41:59.767Z,13.40
2022-09-02T05:44:27.206Z,13.30
2022-09-02T05:46:55.176Z,13.30
2022-09-02T05:49:23.397Z,13.20
2022-09-02T05:52:01.709Z,13.30
2022-09-02T05:54:35.483Z,13.10
2022-09-02T05:57:10.266Z,13.20
2022-09-02T05:59:42.310Z,13.30
2022-09-02T06:02:13.670Z,13.20
2022-09-02T06:04:43.347Z,13.20
2022-09-02T06:07:13.770Z,13.40
2022-09-02T06:09:44.753Z,13.70
2022-09-02T06:12:13.184Z,13.80
2022-09-02T06:14:41.441Z,13.70
2022-09-02T06:17:09.161Z,13.90
2022-09-02T06:19:42.021Z,14.10
2022-09-02T06:22:11.412Z,14.40
2022-09-02T06:24:39.117Z,14.30
2022-09-02T06:27:10.581Z,14.40
2022-09-02T06:29:39.901Z,14.60
2022-09-02T06:32:09.182Z,14.70
2022-09-02T06:34:37.053Z,14.80
2022-09-02T06:37:03.956Z,14.90
2022-09-02T06:39:32.807Z,15.00
2022-09-02T06:42:00.136Z,15.10
2022-09-02T06:44:29.590Z,15.10
2022-09-02T06:47:00.825Z,15.20
2022-09-02T06:49:28.705Z,15.40
2022-09-02T06:51:57.753Z,15.60
2022-09-02T06:54:29.934Z,15.50
2022-09-02T06:57:11.228Z,15.50
2022-09-02T06:59:38.621Z,15.50
2022-09-02T07:02:05.688Z,15.50
2022-09-02T07:04:53.231Z,15.60
2022-09-02T07:07:22.782Z,15.60
2022-09-02T07:10:02.398Z,15.60
2022-09-02T07:12:29.195Z,15.80
2022-09-02T07:15:00.945Z,15.60
2022-09-02T07:17:32.745Z,15.70
2022-09-02T07:20:06.355Z,15.70
2022-09-02T07:22:39.423Z,16.00
2022-09-02T07:25:09.268Z,16.10
2022-09-02T07:27:37.220Z,16.10
2022-09-02T07:30:06.650Z,16.30
2022-09-02T07:32:36.855Z,16.50
2022-09-02T07:35:06.287Z,16.60
2022-09-02T07:37:36.945Z,16.70
2022-09-02T07:40:07.660Z,17.00
2022-09-02T07:42:34.809Z,17.10
2022-09-02T07:45:01.657Z,17.10
2022-09-02T07:47:28.743Z,17.10
2022-09-02T07:52:42.875Z,17.20
2022-09-02T07:55:14.734Z,17.30
2022-09-02T07:57:42.797Z,17.50
2022-09-02T08:00:12.167Z,17.70
2022-09-02T08:02:41.217Z,17.60
2022-09-02T08:05:10.320Z,17.70
2022-09-02T08:07:37.197Z,17.90
2022-09-02T08:10:07.229Z,18.00
2022-09-02T08:12:33.947Z,18.00
2022-09-02T08:15:00.727Z,18.00
2022-09-02T08:17:27.541Z,18.10
2022-09-02T08:19:54.380Z,18.20
2022-09-02T08:22:21.079Z,18.30
2022-09-02T08:24:47.810Z,18.40
2022-09-02T08:27:14.811Z,18.40
2022-09-02T08:29:41.659Z,18.60
2022-09-02T08:32:08.469Z,18.70
2022-09-02T08:34:35.213Z,18.70
2022-09-02T08:37:01.926Z,18.80
2022-09-02T08:39:28.596Z,19.10
2022-09-02T08:42:37.357Z,19.10
2022-09-02T08:45:22.902Z,19.20
2022-09-02T08:48:01.344Z,19.20
2022-09-02T08:50:30.618Z,19.30
2022-09-02T08:53:18.109Z,19.40
2022-09-02T08:55:50.722Z,19.50
2022-09-02T08:58:20.885Z,19.50
2022-09-02T09:00:59.754Z,19.50
2022-09-02T09:03:38.301Z,19.60
2022-09-02T09:06:24.296Z,19.60
2022-09-02T09:09:19.234Z,19.90
2022-09-02T09:12:21.986Z,20.00
2022-09-02T09:15:05.226Z,20.20
2022-09-02T09:17:44.568Z,20.40
2022-09-02T09:20:24.294Z,20.40
2022-09-02T09:22:58.352Z,20.40
2022-09-02T09:25:29.677Z,20.40
2022-09-02T09:27:58.183Z,20.50
2022-09-02T09:30:25.436Z,20.60
2022-09-02T09:32:54.818Z,20.80
2022-09-02T09:35:22.287Z,21.00
2022-09-02T09:37:51.256Z,21.00
2022-09-02T09:40:23.613Z,21.00
2022-09-02T09:42:56.135Z,21.00
2022-09-02T09:45:37.865Z,21.10
2022-09-02T09:48:17.517Z,21.20
2022-09-02T09:50:57.230Z,21.40
2022-09-02T09:53:32.216Z,21.60
2022-09-02T09:56:05.142Z,21.70
2022-09-02T09:58:41.176Z,21.80
2022-09-02T10:01:34.489Z,22.00
2022-09-02T10:04:02.841Z,22.40
2022-09-02T10:06:32.221Z,22.40
2022-09-02T10:09:00.705Z,22.60
2022-09-02T10:11:33.530Z,22.60
2022-09-02T10:14:03.017Z,22.60
2022-09-02T10:17:04.833Z,22.60
2022-09-02T10:19:47.625Z,22.60
2022-09-02T10:22:22.470Z,22.60
2022-09-02T10:25:32.702Z,22.70
2022-09-02T10:28:37.327Z,22.80
2022-09-02T10:31:32.154Z,23.00
2022-09-02T10:34:04.879Z,23.00
2022-09-02T10:36:39.969Z,23.10
2022-09-02T10:39:39.346Z,23.20
2022-09-02T10:42:19.921Z,23.20
2022-09-02T10:45:21.978Z,23.30
2022-09-02T10:48:23.864Z,23.60
2022-09-02T10:51:10.005Z,23.80
2022-09-02T10:54:09.978Z,23.90
2022-09-02T10:56:51.267Z,23.90
2022-09-02T10:59:23.187Z,24.00
2022-09-02T11:02:00.303Z,24.10
2022-09-02T11:04:59.420Z,24.30
2022-09-02T11:07:38.890Z,24.40
2022-09-02T11:10:41.280Z,24.60
2022-09-02T11:13:21.699Z,24.80
2022-09-02T11:16:15.905Z,25.00
2022-09-02T11:19:00.260Z,25.30
2022-09-02T11:21:35.912Z,25.30
2022-09-02T11:24:16.503Z,25.40
2022-09-02T11:26:58.069Z,25.50
2022-09-02T11:29:46.322Z,25.60
2022-09-02T11:32:23.840Z,25.50
2022-09-02T11:34:57.650Z,25.50
2022-09-02T11:37:43.472Z,25.90
2022-09-02T11:40:37.286Z,26.00
2022-09-02T11:43:24.012Z,26.20
2022-09-02T11:46:27.803Z,26.40
2022-09-02T11:49:22.120Z,26.40
2022-09-02T11:52:06.263Z,26.00
2022-09-02T11:54:43.038Z,25.90
2022-09-02T11:57:19.814Z,26.40
2022-09-02T11:59:51.964Z,26.50
2022-09-02T12:02:30.758Z,26.80
2022-09-02T12:05:35.134Z,27.00
2022-09-02T12:08:15.252Z,26.90
2022-09-02T12:10:48.357Z,27.00
2022-09-02T12:13:45.487Z,27.10
2022-09-02T12:16:15.514Z,27.00
2022-09-02T12:19:10.655Z,27.20
2022-09-02T12:22:15.666Z,27.40
2022-09-02T12:24:56.891Z,27.60
2022-09-02T12:27:36.862Z,27.70
2022-09-02T12:30:07.677Z,27.80
2022-09-02T12:32:46.504Z,27.70
2022-09-02T12:35:34.855Z,27.70
2022-09-02T12:38:11.874Z,27.70
2022-09-02T12:40:55.650Z,27.70
2022-09-02T12:44:14.125Z,27.80
2022-09-02T12:46:43.794Z,27.60
2022-09-02T12:49:33.492Z,27.60
2022-09-02T12:52:02.561Z,27.50
2022-09-02T12:54:48.913Z,27.60
2022-09-02T12:57:19.484Z,27.60
2022-09-02T12:59:47.710Z,27.60
2022-09-02T13:02:44.369Z,27.50
2022-09-02T13:05:21.986Z,27.60
2022-09-02T13:08:14.032Z,27.90
2022-09-02T13:11:08.587Z,28.10
2022-09-02T13:14:06.029Z,28.20
2022-09-02T13:17:08.935Z,28.20
2022-09-02T13:19:48.960Z,28.20
2022-09-02T13:22:37.617Z,28.20
2022-09-02T13:25:28.974Z,28.50
2022-09-02T13:28:05.514Z,28.50
2022-09-02T13:30:56.561Z,28.60
2022-09-02T13:33:23.452Z,28.40
2022-09-02T13:35:55.990Z,28.20
2022-09-02T13:38:28.441Z,28.10
2022-09-02T13:40:55.504Z,27.90
2022-09-02T13:43:26.182Z,27.90
2022-09-02T13:45:59.398Z,28.00
2022-09-02T13:48:33.294Z,27.90
2022-09-02T13:51:11.510Z,28.00
2022-09-02T13:53:53.894Z,28.20
2022-09-02T13:56:31.765Z,28.40
2022-09-02T13:58:58.553Z,28.50
2022-09-02T14:01:36.957Z,28.50
2022-09-02T14:04:10.246Z,28.40
2022-09-02T14:06:44.217Z,28.30
2022-09-02T14:09:20.262Z,28.50
2022-09-02T14:11:48.480Z,28.70
2022-09-02T14:14:17.727Z,28.70
2022-09-02T14:16:44.469Z,28.50
2022-09-02T14:19:17.004Z,28.50
2022-09-02T14:21:56.532Z,28.50
2022-09-02T14:24:25.925Z,28.50
2022-09-02T14:26:55.423Z,28.60
2022-09-02T14:29:23.838Z,28.50
2022-09-02T14:32:24.307Z,28.20
2022-09-02T14:35:22.278Z,28.00
2022-09-02T14:37:57.641Z,27.90
2022-09-02T14:40:40.553Z,27.70
2022-09-02T14:43:15.589Z,27.60
2022-09-02T14:45:50.060Z,27.70
2022-09-02T14:48:23.601Z,27.70
2022-09-02T14:51:02.263Z,27.70
2022-09-02T14:53:29.816Z,27.80
2022-09-02T14:55:57.315Z,27.80
2022-09-02T14:58:27.513Z,27.90
2022-09-02T15:01:01.743Z,27.90
2022-09-02T15:03:36.486Z,27.80
2022-09-02T15:06:03.383Z,27.90
2022-09-02T15:08:30.155Z,27.90
2022-09-02T15:10:59.682Z,27.80
2022-09-02T15:13:32.412Z,27.60
2022-09-02T15:15:59.541Z,27.50
2022-09-02T15:18:26.554Z,27.20
2022-09-02T15:20:54.199Z,27.00
2022-09-02T15:23:21.857Z,26.90
2022-09-02T15:25:48.659Z,27.00
2022-09-02T15:28:15.440Z,27.20
2022-09-02T15:30:42.417Z,27.30
2022-09-02T15:33:16.586Z,27.40
2022-09-02T15:35:47.287Z,27.30
2022-09-02T15:38:14.022Z,27.10
2022-09-02T15:40:40.889Z,26.90
2022-09-02T15:43:07.586Z,27.00
2022-09-02T15:45:35.142Z,27.00
2022-09-02T15:48:02.041Z,27.00
2022-09-02T15:50:31.640Z,27.00
2022-09-02T15:52:58.464Z,26.90
2022-09-02T15:55:29.145Z,26.80
2022-09-02T15:57:56.856Z,26.60
2022-09-02T16:00:27.790Z,26.60
2022-09-02T16:02:57.043Z,26.50
2022-09-02T16:05:24.155Z,26.50
2022-09-02T16:07:52.067Z,26.30
2022-09-02T16:10:18.795Z,26.30
2022-09-02T16:12:45.725Z,26.20
2022-09-02T16:15:12.391Z,26.20
2022-09-02T16:17:39.065Z,26.20
2022-09-02T16:20:06.229Z,26.10
2022-09-02T16:22:33.258Z,26.20
2022-09-02T16:25:01.765Z,26.20
2022-09-02T16:27:47.134Z,26.20
2022-09-02T16:30:13.885Z,26.10
2022-09-02T16:32:40.758Z,25.90
2022-09-02T16:35:08.481Z,25.70
2022-09-02T16:37:35.709Z,25.60
2022-09-02T16:40:03.361Z,25.60
2022-09-02T16:42:30.824Z,25.60
2022-09-02T16:44:59.610Z,25.50
2022-09-02T16:47:26.977Z,25.40
2022-09-02T16:49:53.694Z,25.40
2022-09-02T16:52:20.388Z,25.30
2022-09-02T16:54:47.386Z,25.30
2022-09-02T16:57:14.231Z,25.20
2022-09-02T16:59:40.964Z,25.10
2022-09-02T17:02:07.765Z,24.90
2022-09-02T17:04:34.844Z,24.90
2022-09-02T17:07:01.553Z,24.90
2022-09-02T17:09:28.254Z,24.90
2022-09-02T17:11:54.925Z,24.70
2022-09-02T17:14:21.801Z,24.60
2022-09-02T17:16:50.444Z,24.60
2022-09-02T17:19:22.361Z,24.50
2022-09-02T17:21:54.336Z,24.40
2022-09-02T17:24:24.154Z,24.30
2022-09-02T17:26:54.235Z,24.20
2022-09-02T17:32:09.534Z,23.90
2022-09-02T17:34:36.830Z,23.80
2022-09-02T17:37:04.487Z,23.70
2022-09-02T17:39:31.285Z,23.60
2022-09-02T17:41:58.061Z,23.40
2022-09-02T17:44:34.890Z,23.30
2022-09-02T17:47:20.116Z,23.20
2022-09-02T17:49:48.263Z,23.00
2022-09-02T17:52:20.951Z,23.00
2022-09-02T17:54:52.860Z,23.00
2022-09-02T17:57:30.747Z,23.10
2022-09-02T18:00:01.325Z,23.00
2022-09-02T18:02:40.616Z,22.60
2022-09-02T18:05:19.951Z,22.40
2022-09-02T18:08:08.725Z,22.30
2022-09-02T18:10:41.610Z,22.30
2022-09-02T18:13:13.756Z,22.00
2022-09-02T18:16:23.555Z,21.90
2022-09-02T18:18:56.211Z,21.80
2022-09-02T18:21:50.576Z,21.70
2022-09-02T18:24:50.858Z,21.60
2022-09-02T18:27:39.336Z,21.40
2022-09-02T18:30:16.949Z,21.40
2022-09-02T18:32:59.497Z,21.40
2022-09-02T18:35:55.613Z,21.40
2022-09-02T18:38:30.151Z,21.20
2022-09-02T18:41:15.582Z,21.30
2022-09-02T18:44:10.111Z,21.30
2022-09-02T18:46:59.273Z,20.90
2022-09-02T18:49:27.973Z,20.20
2022-09-02T18:51:59.185Z,20.20
2022-09-02T18:54:30.944Z,20.20
2022-09-02T18:57:05.323Z,20.30
2022-09-02T18:59:40.636Z,20.30
2022-09-02T19:02:20.350Z,20.40
2022-09-02T19:04:47.123Z,20.40
2022-09-02T19:07:32.754Z,20.50
2022-09-02T19:10:01.034Z,20.50
2022-09-02T19:12:32.787Z,20.40
2022-09-02T19:15:00.653Z,20.40
2022-09-02T19:17:27.425Z,20.40
2022-09-02T19:19:54.141Z,20.20
2022-09-02T19:22:28.248Z,20.00
2022-09-02T19:25:01.292Z,19.60
2022-09-02T19:27:32.860Z,19.50
2022-09-02T19:30:05.474Z,19.50
2022-09-02T19:32:35.541Z,19.50
2022-09-02T19:35:08.448Z,19.50
2022-09-02T19:37:43.236Z,19.70
2022-09-02T19:40:12.126Z,19.60
2022-09-02T19:42:38.912Z,19.50
2022-09-02T19:45:05.960Z,19.50
2022-09-02T19:50:21.227Z,19.30
2022-09-02T19:52:49.351Z,19.30
2022-09-02T19:55:17.377Z,19.10
2022-09-02T19:57:45.027Z,18.90
2022-09-02T20:00:13.416Z,19.00
2022-09-02T20:02:40.349Z,18.90
2022-09-02T20:05:12.075Z,18.80
2022-09-02T20:07:39.616Z,18.80
2022-09-02T20:10:07.421Z,18.80
2022-09-02T20:12:35.778Z,18.80
2022-09-02T20:15:04.534Z,18.80
2022-09-02T20:17:32.014Z,18.60
2022-09-02T20:20:02.648Z,18.50
2022-09-02T20:22:30.904Z,18.60
2022-09-02T20:24:58.318Z,18.60
2022-09-02T20:27:37.177Z,18.40
2022-09-02T20:30:09.169Z,18.30
2022-09-02T20:33:00.489Z,18.30
2022-09-02T20:35:43.977Z,18.10
2022-09-02T20:38:40.432Z,18.30
2022-09-02T20:41:36.822Z,18.30
2022-09-02T20:44:34.664Z,18.30
2022-09-02T20:47:10.585Z,18.30
2022-09-02T20:50:12.272Z,18.20
2022-09-02T20:53:14.270Z,18.30
2022-09-02T20:55:54.771Z,18.40
2022-09-02T20:58:44.474Z,18.60
2022-09-02T21:01:34.010Z,18.60
2022-09-02T21:04:12.655Z,18.60
2022-09-02T21:06:45.666Z,18.40
2022-09-02T21:09:23.849Z,18.40
2022-09-02T21:12:02.754Z,18.60
2022-09-02T21:14:39.254Z,18.70
2022-09-02T21:17:12.605Z,18.50
2022-09-02T21:19:51.926Z,18.60
2022-09-02T21:22:28.654Z,18.50
2022-09-02T21:25:21.580Z,18.40
2022-09-02T21:27:59.632Z,18.50
2022-09-02T21:30:28.219Z,18.60
2022-09-02T21:33:03.325Z,18.40
2022-09-02T21:35:40.665Z,18.40
2022-09-02T21:38:23.503Z,18.40
2022-09-02T21:40:50.229Z,18.30
2022-09-02T21:43:34.887Z,18.40
2022-09-02T21:46:27.379Z,18.30
2022-09-02T21:49:23.593Z,18.50
2022-09-02T21:52:22.158Z,18.40
2022-09-02T21:55:00.752Z,18.30
2022-09-02T21:57:53.841Z,18.20
2022-09-02T22:00:22.939Z,18.20
2022-09-02T22:03:13.033Z,18.30
2022-09-02T22:05:54.673Z,18.20
2022-09-02T22:08:33.880Z,18.00
2022-09-02T22:11:00.932Z,18.10
2022-09-02T22:13:30.749Z,18.10
2022-09-02T22:16:35.523Z,18.00
2022-09-02T22:19:08.573Z,18.10
2022-09-02T22:21:55.019Z,17.90
2022-09-02T22:24:29.044Z,17.90
2022-09-02T22:27:17.794Z,18.00
2022-09-02T22:29:54.921Z,17.90
2022-09-02T22:32:24.991Z,18.10
2022-09-02T22:35:04.603Z,18.10
2022-09-02T22:37:46.829Z,18.00
2022-09-02T22:40:17.479Z,18.00
2022-09-02T22:42:48.594Z,17.90
2022-09-02T22:45:50.928Z,17.90
2022-09-02T22:48:52.706Z,18.00
2022-09-02T22:51:54.846Z,18.00
2022-09-02T22:54:21.838Z,17.90
2022-09-02T22:57:07.462Z,17.80
2022-09-02T23:00:01.988Z,18.00
2022-09-02T23:02:36.998Z,18.00
2022-09-02T23:05:51.915Z,18.00
2022-09-02T23:08:20.926Z,18.00
2022-09-02T23:11:11.442Z,17.70
2022-09-02T23:14:08.954Z,17.70
2022-09-02T23:16:53.407Z,17.80
2022-09-02T23:19:34.776Z,17.80
2022-09-02T23:22:31.827Z,17.80
2022-09-02T23:25:23.015Z,17.90
2022-09-02T23:28:05.805Z,17.80
2022-09-02T23:30:32.532Z,17.70
2022-09-02T23:33:18.214Z,17.60
2022-09-02T23:36:00.565Z,17.70
2022-09-02T23:38:47.007Z,17.70
2022-09-02T23:41:14.187Z,17.70
2022-09-02T23:43:42.772Z,17.50
2022-09-02T23:46:09.423Z,17.40
2022-09-02T23:49:06.596Z,17.50
2022-09-02T23:51:42.658Z,17.30
2022-09-02T23:54:18.334Z,17.50
2022-09-02T23:57:09.760Z,17.40
2022-09-02T23:59:57.519Z,17.40
